Time;durP1;ratioP1;P1;durP2;ratioP2;P2;SDS_P1;SDS_P2;PMS_P1;PMS_P2;Temp;Humidity;BMP_temperature;BMP_pressure;BME280_temperature;BME280_humidity;BME280_pressure;Samples;Min_cycle;Max_cycle;Signal;HPM_P1;HPM_P2
2021/04/28 00:00:22;;;;;;;15.73;9.10;;;20.10;99.90;;;;;;5045934;28;20184;-72
2021/04/28 00:02:50;;;;;;;16.00;11.03;;;20.30;99.90;;;;;;5047783;28;20199;-74
2021/04/28 00:05:18;;;;;;;21.23;12.03;;;20.40;99.90;;;;;;5051898;28;20215;-73
2021/04/28 00:07:47;;;;;;;16.17;8.37;;;20.60;99.90;;;;;;5052059;28;20754;-74
2021/04/28 00:10:17;;;;;;;13.93;6.43;;;20.70;99.90;;;;;;5051826;28;20191;-72
2021/04/28 00:12:46;;;;;;;9.07;5.60;;;20.80;99.90;;;;;;5052826;28;20187;-72
2021/04/28 00:15:20;;;;;;;12.97;5.20;;;20.90;99.90;;;;;;5063224;28;20312;-72
2021/04/28 00:17:48;;;;;;;10.00;4.20;;;20.90;99.90;;;;;;5059818;28;20188;-73
2021/04/28 00:20:16;;;;;;;7.23;3.30;;;20.90;99.90;;;;;;5072122;28;20183;-72
2021/04/28 00:22:43;;;;;;;7.70;4.43;;;20.80;99.90;;;;;;5072404;28;20194;-72
2021/04/28 00:25:14;;;;;;;9.27;5.63;;;21.00;99.90;;;;;;5057177;28;20222;-70
2021/04/28 00:27:42;;;;;;;12.13;5.57;;;21.00;99.90;;;;;;5037324;28;20192;-69
2021/04/28 00:30:12;;;;;;;12.53;5.33;;;21.00;99.90;;;;;;5049444;28;20216;-69
2021/04/28 00:32:40;;;;;;;11.40;5.70;;;21.10;99.90;;;;;;5050416;28;20184;-70
2021/04/28 00:35:11;;;;;;;11.30;5.87;;;21.30;99.90;;;;;;5051728;28;20254;-71
2021/04/28 00:37:42;;;;;;;9.17;6.03;;;21.50;99.90;;;;;;5051960;28;20211;-71
2021/04/28 00:40:12;;;;;;;11.13;5.30;;;21.50;99.90;;;;;;5053883;28;20191;-71
2021/04/28 00:42:42;;;;;;;12.13;5.77;;;21.30;99.90;;;;;;5043316;28;20523;-72
2021/04/28 00:45:11;;;;;;;12.37;5.60;;;21.20;99.90;;;;;;5056360;28;20648;-70
2021/04/28 00:47:38;;;;;;;10.13;5.80;;;21.10;99.90;;;;;;5064776;28;20190;-75
2021/04/28 00:50:07;;;;;;;8.70;5.70;;;21.10;99.90;;;;;;5058588;28;20615;-74
2021/04/28 00:52:35;;;;;;;10.50;4.57;;;20.90;99.90;;;;;;5059119;28;20186;-75
2021/04/28 00:55:05;;;;;;;9.57;5.13;;;20.90;99.90;;;;;;5056711;28;20230;-73
2021/04/28 00:57:33;;;;;;;11.63;5.67;;;21.10;99.90;;;;;;5050882;28;20639;-73
2021/04/28 01:00:03;;;;;;;8.27;4.90;;;21.00;99.90;;;;;;5062473;28;20187;-73
2021/04/28 01:02:31;;;;;;;8.80;5.33;;;20.90;99.90;;;;;;5074271;28;20661;-74
2021/04/28 01:04:59;;;;;;;11.30;5.40;;;20.90;99.90;;;;;;5060332;28;20234;-73
2021/04/28 01:07:27;;;;;;;9.47;5.60;;;20.90;99.90;;;;;;5061737;28;20186;-71
2021/04/28 01:09:55;;;;;;;8.40;5.77;;;21.10;99.90;;;;;;5053125;28;20187;-75
2021/04/28 01:12:23;;;;;;;5.93;4.57;;;21.30;99.90;;;;;;5054874;28;20248;-74
2021/04/28 01:14:52;;;;;;;10.70;4.90;;;21.70;99.90;;;;;;5056023;28;20269;-74
2021/04/28 01:17:20;;;;;;;8.87;5.03;;;21.70;99.90;;;;;;5053515;28;20588;-74
2021/04/28 01:19:48;;;;;;;7.73;5.00;;;21.70;99.90;;;;;;5053472;28;20272;-74
2021/04/28 01:22:17;;;;;;;7.27;5.27;;;21.50;99.90;;;;;;5049741;28;20503;-72
2021/04/28 01:24:44;;;;;;;9.03;5.10;;;21.50;99.90;;;;;;5053507;28;20308;-74
2021/04/28 01:27:23;;;;;;;7.60;5.53;;;21.50;99.90;;;;;;5052697;28;20180;-74
2021/04/28 01:29:51;;;;;;;14.03;5.60;;;21.50;99.90;;;;;;5054701;28;20524;-71
2021/04/28 01:32:22;;;;;;;7.07;5.17;;;21.40;99.90;;;;;;5059337;28;20179;-74
2021/04/28 01:34:52;;;;;;;9.50;5.40;;;21.50;99.90;;;;;;5073770;28;20183;-75
2021/04/28 01:37:20;;;;;;;8.83;5.23;;;21.50;99.90;;;;;;5074289;28;20187;-72
2021/04/28 01:39:49;;;;;;;8.63;5.30;;;21.50;99.90;;;;;;5073999;28;20179;-72
2021/04/28 01:42:18;;;;;;;6.93;4.70;;;21.50;99.90;;;;;;5074008;28;20237;-72
2021/04/28 01:44:48;;;;;;;8.03;5.50;;;21.50;99.90;;;;;;5073697;28;20245;-74
2021/04/28 01:47:18;;;;;;;14.27;6.20;;;21.70;99.90;;;;;;5069531;28;20238;-73
2021/04/28 01:49:46;;;;;;;12.57;6.87;;;21.60;99.90;;;;;;5074807;28;20173;-75
2021/04/28 01:52:15;;;;;;;9.97;5.80;;;21.60;99.90;;;;;;5075037;28;20179;-74
2021/04/28 01:54:45;;;;;;;8.07;4.87;;;21.70;99.90;;;;;;5057056;28;20222;-74
2021/04/28 01:57:13;;;;;;;8.43;4.97;;;22.00;99.90;;;;;;5059549;28;20197;-77
2021/04/28 01:59:41;;;;;;;11.70;5.40;;;22.20;99.90;;;;;;5075155;28;20226;-75
2021/04/28 02:02:10;;;;;;;7.37;4.70;;;22.40;99.90;;;;;;5074505;28;20191;-74
2021/04/28 02:04:38;;;;;;;5.93;4.53;;;23.20;99.40;;;;;;5073264;28;20221;-75
2021/04/28 02:07:06;;;;;;;6.70;4.10;;;23.20;98.80;;;;;;5073670;28;20547;-75
2021/04/28 02:09:34;;;;;;;7.97;4.00;;;23.70;98.60;;;;;;5073117;28;20604;-74
2021/04/28 02:12:02;;;;;;;6.53;4.30;;;23.80;97.70;;;;;;5067806;28;20605;-76
2021/04/28 02:14:31;;;;;;;10.43;4.70;;;23.90;97.40;;;;;;5054125;28;20176;-74
2021/04/28 02:16:59;;;;;;;10.63;4.17;;;24.30;96.70;;;;;;5064417;28;20198;-74
2021/04/28 02:19:28;;;;;;;14.10;4.13;;;24.10;96.40;;;;;;5072600;28;20253;-76
2021/04/28 02:21:56;;;;;;;8.33;4.10;;;23.80;97.30;;;;;;5073205;28;20221;-74
2021/04/28 02:24:24;;;;;;;8.47;4.20;;;24.20;96.50;;;;;;5073033;28;20215;-76
2021/04/28 02:26:57;;;;;;;6.73;3.93;;;24.40;96.30;;;;;;5073015;28;20633;-77
2021/04/28 02:29:24;;;;;;;7.27;3.43;;;24.40;96.30;;;;;;5073352;28;20203;-74
2021/04/28 02:31:52;;;;;;;9.03;3.70;;;24.30;96.20;;;;;;5070327;28;20580;-75
2021/04/28 02:34:19;;;;;;;7.13;3.30;;;24.50;95.70;;;;;;5052735;28;20178;-78
2021/04/28 02:36:51;;;;;;;6.07;3.63;;;23.90;95.90;;;;;;5067997;28;20669;-74
2021/04/28 02:39:23;;;;;;;7.90;3.77;;;23.80;95.60;;;;;;5072727;28;20659;-77
2021/04/28 02:41:51;;;;;;;5.57;3.23;;;23.50;96.00;;;;;;5073004;28;20633;-77
2021/04/28 02:44:20;;;;;;;6.40;3.40;;;23.60;95.80;;;;;;5072467;28;20544;-76
2021/04/28 02:46:48;;;;;;;5.10;3.50;;;23.40;96.70;;;;;;5072666;28;20187;-76
2021/04/28 02:49:17;;;;;;;6.33;3.53;;;23.40;96.40;;;;;;5068059;28;20214;-74
2021/04/28 02:51:47;;;;;;;5.67;3.20;;;23.40;96.80;;;;;;5061241;28;20271;-78
2021/04/28 02:54:16;;;;;;;11.13;3.47;;;23.60;96.90;;;;;;5067969;28;20184;-74
2021/04/28 02:56:44;;;;;;;10.40;3.40;;;23.50;96.70;;;;;;5070103;28;20605;-76
2021/04/28 02:59:13;;;;;;;9.77;3.77;;;23.70;96.40;;;;;;5072087;28;20171;-79
2021/04/28 03:01:41;;;;;;;9.80;3.67;;;23.50;96.90;;;;;;5072385;28;20186;-75
2021/04/28 03:04:10;;;;;;;6.77;3.73;;;23.50;96.50;;;;;;5072279;28;20175;-74
2021/04/28 03:06:37;;;;;;;9.13;3.50;;;23.30;96.50;;;;;;5060981;28;20192;-73
2021/04/28 03:09:06;;;;;;;9.30;4.13;;;23.20;96.80;;;;;;5064118;28;20175;-75
2021/04/28 03:11:34;;;;;;;4.67;3.47;;;23.70;96.50;;;;;;5062383;28;20179;-77
2021/04/28 03:14:02;;;;;;;9.43;3.77;;;24.10;96.00;;;;;;5065448;28;20168;-76
2021/04/28 03:16:30;;;;;;;5.00;3.33;;;24.40;95.20;;;;;;5065908;28;20266;-73
2021/04/28 03:19:04;;;;;;;6.13;3.40;;;23.80;95.60;;;;;;5061213;28;20195;-76
2021/04/28 03:21:36;;;;;;;5.37;3.33;;;23.20;96.60;;;;;;5069192;28;20249;-75
2021/04/28 03:24:04;;;;;;;5.23;3.40;;;23.00;97.10;;;;;;5070911;28;20178;-73
2021/04/28 03:26:32;;;;;;;7.00;3.70;;;22.80;97.50;;;;;;5056772;28;20209;-74
2021/04/28 03:28:59;;;;;;;8.27;3.63;;;22.50;97.80;;;;;;5072421;28;20179;-75
2021/04/28 03:31:27;;;;;;;6.57;4.03;;;22.40;98.20;;;;;;5071922;28;20227;-75
2021/04/28 03:33:54;;;;;;;6.60;3.63;;;22.20;98.20;;;;;;5057077;28;20175;-75
2021/04/28 03:36:22;;;;;;;7.80;3.30;;;22.20;98.30;;;;;;5072149;28;20258;-74
2021/04/28 03:38:49;;;;;;;5.40;3.87;;;22.20;98.20;;;;;;5072336;28;20179;-75
2021/04/28 03:41:17;;;;;;;9.80;3.87;;;22.20;98.50;;;;;;5071959;28;20206;-75
2021/04/28 03:43:45;;;;;;;6.40;3.90;;;22.30;98.20;;;;;;5072873;28;20194;-74
2021/04/28 03:46:14;;;;;;;4.93;3.70;;;22.30;98.10;;;;;;5075811;28;20302;-74
2021/04/28 03:48:41;;;;;;;7.93;3.63;;;22.80;97.90;;;;;;5063250;28;20211;-74
2021/04/28 03:51:09;;;;;;;5.57;3.17;;;23.10;97.30;;;;;;5075495;28;20175;-72
2021/04/28 03:53:36;;;;;;;6.37;3.07;;;23.80;96.20;;;;;;5063440;28;20176;-77
2021/04/28 03:56:04;;;;;;;5.43;3.20;;;24.00;95.80;;;;;;5068027;28;20191;-76
2021/04/28 03:58:31;;;;;;;5.27;3.27;;;23.80;95.50;;;;;;5075631;28;20183;-74
2021/04/28 04:00:59;;;;;;;8.10;2.97;;;23.90;95.70;;;;;;5076000;28;20661;-77
2021/04/28 04:03:27;;;;;;;4.83;2.70;;;24.10;94.80;;;;;;5075747;28;20178;-78
2021/04/28 04:05:54;;;;;;;4.60;3.17;;;24.60;94.50;;;;;;5074835;28;20230;-75
2021/04/28 04:08:21;;;;;;;5.80;3.23;;;24.70;94.10;;;;;;5074965;28;20214;-75
2021/04/28 04:10:49;;;;;;;4.77;3.23;;;24.70;93.60;;;;;;5055492;28;20237;-72
2021/04/28 04:13:16;;;;;;;10.27;3.17;;;24.40;94.20;;;;;;5064469;28;20262;-75
2021/04/28 04:15:44;;;;;;;4.73;3.37;;;24.40;94.20;;;;;;5073643;28;20650;-71
2021/04/28 04:18:11;;;;;;;4.93;2.97;;;23.80;94.60;;;;;;5065569;28;20180;-71
2021/04/28 04:20:38;;;;;;;7.30;3.17;;;23.50;95.10;;;;;;5058282;28;20237;-74
2021/04/28 04:23:06;;;;;;;7.30;3.20;;;23.60;95.60;;;;;;5075759;28;20160;-76
2021/04/28 04:25:33;;;;;;;7.23;3.03;;;23.40;95.40;;;;;;5075300;28;20700;-73
2021/04/28 04:28:01;;;;;;;7.33;3.10;;;23.30;95.50;;;;;;5075743;28;20179;-73
2021/04/28 04:30:28;;;;;;;6.03;3.03;;;23.50;95.20;;;;;;5075037;28;20693;-75
2021/04/28 04:32:56;;;;;;;4.30;3.33;;;23.50;95.20;;;;;;5073519;28;20503;-75
2021/04/28 04:35:24;;;;;;;7.50;3.17;;;23.60;95.20;;;;;;5074990;28;20752;-72
2021/04/28 04:37:52;;;;;;;5.97;3.43;;;23.40;95.50;;;;;;5070030;28;20526;-74
2021/04/28 04:40:19;;;;;;;5.37;3.27;;;23.00;96.20;;;;;;5075113;28;20182;-73
2021/04/28 04:42:47;;;;;;;8.17;3.37;;;22.80;96.50;;;;;;5075299;28;20266;-73
2021/04/28 04:45:15;;;;;;;6.97;4.20;;;23.00;96.60;;;;;;5066894;28;20214;-73
2021/04/28 04:47:42;;;;;;;8.37;4.03;;;23.20;96.40;;;;;;5074139;28;20183;-74
2021/04/28 04:50:10;;;;;;;7.37;3.40;;;23.60;95.80;;;;;;5074724;28;20179;-73
2021/04/28 04:52:38;;;;;;;11.10;3.60;;;24.00;95.30;;;;;;5073052;28;20183;-73
2021/04/28 04:55:06;;;;;;;7.87;3.60;;;24.20;94.50;;;;;;5073779;28;20183;-73
2021/04/28 04:57:34;;;;;;;6.57;3.13;;;24.40;94.10;;;;;;5073799;28;20285;-71
2021/04/28 05:00:03;;;;;;;4.40;2.73;;;24.50;93.40;;;;;;5073902;28;20176;-73
2021/04/28 05:02:31;;;;;;;4.77;2.70;;;24.60;93.10;;;;;;5073071;28;20186;-76
2021/04/28 05:04:58;;;;;;;5.60;2.53;;;24.90;93.00;;;;;;5069888;28;20215;-74
2021/04/28 05:07:25;;;;;;;9.00;3.50;;;25.00;93.10;;;;;;5073938;28;20262;-70
2021/04/28 05:09:53;;;;;;;3.17;2.23;;;25.10;92.80;;;;;;5073946;28;20175;-70
2021/04/28 05:12:20;;;;;;;4.10;2.77;;;24.90;93.00;;;;;;5074227;28;20250;-74
2021/04/28 05:14:48;;;;;;;6.63;2.97;;;24.60;93.80;;;;;;5074541;28;20246;-72
2021/04/28 05:17:15;;;;;;;4.53;2.90;;;24.20;93.70;;;;;;5075135;28;20194;-72
2021/04/28 05:19:43;;;;;;;6.37;3.07;;;24.20;94.00;;;;;;5058383;28;20660;-69
2021/04/28 05:22:10;;;;;;;7.67;4.87;;;23.90;94.20;;;;;;5056028;28;20187;-74
2021/04/28 05:24:37;;;;;;;9.27;5.80;;;23.10;95.40;;;;;;5052845;28;20208;-73
2021/04/28 05:27:05;;;;;;;5.23;2.93;;;22.80;95.90;;;;;;5047887;28;20196;-71
2021/04/28 05:29:32;;;;;;;7.03;3.00;;;22.50;96.30;;;;;;5073136;28;20252;-74
2021/04/28 05:32:00;;;;;;;6.57;2.90;;;22.60;96.40;;;;;;5072317;28;20196;-70
2021/04/28 05:34:27;;;;;;;7.17;2.97;;;22.60;96.60;;;;;;5073473;28;20186;-71
2021/04/28 05:36:54;;;;;;;5.43;2.80;;;22.60;96.60;;;;;;5074985;28;20228;-72
2021/04/28 05:39:22;;;;;;;4.90;2.97;;;22.50;97.10;;;;;;5069287;28;20187;-74
2021/04/28 05:41:49;;;;;;;11.03;3.00;;;22.40;97.20;;;;;;5066313;28;20183;-75
2021/04/28 05:44:17;;;;;;;5.80;2.83;;;22.30;97.80;;;;;;5075228;28;20226;-74
2021/04/28 05:46:47;;;;;;;6.37;2.60;;;22.00;98.10;;;;;;5070214;28;20230;-73
2021/04/28 05:49:15;;;;;;;8.50;3.20;;;21.80;98.40;;;;;;5062906;28;20207;-73
2021/04/28 05:51:43;;;;;;;4.83;3.03;;;21.70;98.80;;;;;;5071055;28;20176;-71
2021/04/28 05:54:11;;;;;;;6.07;2.80;;;21.60;98.80;;;;;;5063583;28;20187;-73
2021/04/28 05:56:40;;;;;;;5.53;2.70;;;21.60;98.80;;;;;;5073677;28;20190;-75
2021/04/28 05:59:07;;;;;;;10.90;3.30;;;21.50;99.00;;;;;;5074027;28;20527;-73
2021/04/28 06:01:35;;;;;;;4.60;3.40;;;21.40;99.30;;;;;;5073999;28;20194;-73
2021/04/28 06:04:03;;;;;;;4.37;2.87;;;21.50;99.20;;;;;;5076245;28;20201;-74
2021/04/28 06:06:30;;;;;;;6.50;3.57;;;21.20;99.30;;;;;;5075092;28;20215;-74
2021/04/28 06:08:57;;;;;;;5.90;3.20;;;21.10;99.50;;;;;;5058577;28;20180;-73
2021/04/28 06:11:25;;;;;;;6.33;3.00;;;21.10;99.90;;;;;;5061753;28;20188;-73
2021/04/28 06:13:52;;;;;;;5.27;3.30;;;21.00;99.70;;;;;;5070891;28;20332;-73
2021/04/28 06:16:20;;;;;;;5.60;3.30;;;21.00;99.70;;;;;;5074253;28;20171;-73
2021/04/28 06:18:47;;;;;;;9.87;3.70;;;21.10;99.70;;;;;;5071370;28;20596;-75
2021/04/28 06:21:14;;;;;;;5.20;2.80;;;21.00;99.80;;;;;;5053910;28;20208;-73
2021/04/28 06:23:42;;;;;;;3.90;2.90;;;21.00;99.90;;;;;;5050284;28;20190;-76
2021/04/28 06:26:09;;;;;;;7.13;3.47;;;20.90;99.90;;;;;;5055524;28;20219;-72
2021/04/28 06:28:37;;;;;;;4.43;3.20;;;20.80;99.90;;;;;;5052789;28;20211;-74
2021/04/28 06:31:04;;;;;;;9.77;3.20;;;20.60;99.90;;;;;;5054296;28;20287;-73
2021/04/28 06:33:31;;;;;;;4.70;3.50;;;20.50;99.90;;;;;;5053275;28;20176;-74
2021/04/28 06:35:59;;;;;;;7.53;3.10;;;20.50;99.90;;;;;;5052815;28;20210;-72
2021/04/28 06:38:26;;;;;;;6.87;3.17;;;20.50;99.90;;;;;;5050152;28;20190;-73
2021/04/28 06:40:53;;;;;;;4.10;3.00;;;20.40;99.90;;;;;;5050762;28;21419;-73
2021/04/28 06:43:21;;;;;;;3.20;2.90;;;20.30;99.90;;;;;;5058927;28;20190;-70
2021/04/28 06:45:48;;;;;;;15.60;3.90;;;20.30;99.90;;;;;;5055728;28;20539;-72
2021/04/28 06:48:15;;;;;;;8.00;3.43;;;20.20;99.90;;;;;;5052733;28;20225;-74
2021/04/28 06:50:43;;;;;;;5.40;3.17;;;20.20;99.90;;;;;;5072377;28;20748;-74
2021/04/28 06:53:10;;;;;;;3.97;3.17;;;20.20;99.90;;;;;;5069480;28;20201;-73
2021/04/28 06:55:37;;;;;;;6.03;3.70;;;20.20;99.90;;;;;;5053441;28;20179;-76
2021/04/28 06:58:05;;;;;;;7.43;3.87;;;20.10;99.90;;;;;;5060368;28;20168;-73
2021/04/28 07:00:33;;;;;;;7.67;3.53;;;20.10;99.90;;;;;;5051881;28;20203;-73
2021/04/28 07:03:00;;;;;;;6.50;3.83;;;20.10;99.90;;;;;;5066385;28;20178;-73
2021/04/28 07:05:28;;;;;;;7.17;3.37;;;20.10;99.90;;;;;;5072510;28;20229;-75
2021/04/28 07:07:56;;;;;;;7.00;3.40;;;20.00;99.90;;;;;;5069909;28;20709;-74
2021/04/28 07:10:24;;;;;;;4.30;3.07;;;19.90;99.90;;;;;;5064404;28;20656;-75
2021/04/28 07:12:52;;;;;;;5.27;3.33;;;19.80;99.90;;;;;;5072638;28;20181;-74
2021/04/28 07:15:20;;;;;;;4.73;3.43;;;19.80;99.90;;;;;;5072501;28;20186;-74
2021/04/28 07:17:49;;;;;;;5.33;3.50;;;19.70;99.90;;;;;;5064939;28;20183;-73
2021/04/28 07:20:17;;;;;;;8.87;3.80;;;19.70;99.90;;;;;;5058702;28;20207;-72
2021/04/28 07:22:44;;;;;;;3.47;3.17;;;19.60;99.90;;;;;;5051512;28;20818;-72
2021/04/28 07:25:12;;;;;;;7.80;3.50;;;19.50;99.90;;;;;;5049801;28;20743;-73
2021/04/28 07:27:43;;;;;;;8.47;3.67;;;19.40;99.90;;;;;;5046044;28;20238;-74
2021/04/28 07:30:13;;;;;;;7.83;3.70;;;19.40;99.90;;;;;;5051490;28;20228;-73
2021/04/28 07:32:40;;;;;;;6.13;3.87;;;19.40;99.90;;;;;;5050881;28;20188;-73
2021/04/28 07:35:09;;;;;;;9.80;3.53;;;19.40;99.90;;;;;;5050888;28;20685;-75
2021/04/28 07:37:37;;;;;;;8.13;3.70;;;19.30;99.90;;;;;;5044389;28;20215;-73
2021/04/28 07:40:07;;;;;;;7.90;4.20;;;19.30;99.90;;;;;;5043818;28;20218;-72
2021/04/28 07:42:34;;;;;;;8.47;3.67;;;19.30;99.90;;;;;;5051399;28;20635;-71
2021/04/28 07:45:02;;;;;;;6.40;4.53;;;19.20;99.90;;;;;;5050573;28;20275;-72
2021/04/28 07:47:29;;;;;;;4.37;3.47;;;19.20;99.90;;;;;;5050592;28;20180;-73
2021/04/28 07:49:56;;;;;;;7.57;3.83;;;19.20;99.90;;;;;;5050908;28;20614;-70
2021/04/28 07:52:24;;;;;;;5.97;3.83;;;19.10;99.90;;;;;;5049149;28;20218;-72
2021/04/28 07:54:51;;;;;;;8.20;4.13;;;19.10;99.90;;;;;;5051343;28;20184;-74
2021/04/28 07:57:19;;;;;;;6.73;4.00;;;19.10;99.90;;;;;;5050938;28;20266;-72
2021/04/28 07:59:46;;;;;;;8.70;3.73;;;19.10;99.90;;;;;;5051504;28;20187;-74
2021/04/28 08:02:13;;;;;;;7.70;4.23;;;19.00;99.90;;;;;;5050964;28;20176;-72
2021/04/28 08:04:41;;;;;;;5.20;3.90;;;19.10;99.90;;;;;;5051652;28;20196;-73
2021/04/28 08:07:09;;;;;;;14.80;4.27;;;19.10;99.90;;;;;;5049698;28;20196;-74
2021/04/28 08:09:37;;;;;;;8.87;4.57;;;19.00;99.90;;;;;;5049796;28;20184;-69
2021/04/28 08:12:05;;;;;;;5.73;3.97;;;19.00;99.90;;;;;;5053095;28;20184;-72
2021/04/28 08:14:33;;;;;;;10.53;4.50;;;19.00;99.90;;;;;;5066220;28;20534;-73
2021/04/28 08:17:00;;;;;;;9.50;4.17;;;19.00;99.90;;;;;;5049199;28;20711;-73
2021/04/28 08:19:27;;;;;;;6.60;3.83;;;19.00;99.90;;;;;;5063224;28;20172;-73
2021/04/28 08:21:55;;;;;;;9.00;4.27;;;18.90;99.90;;;;;;5053396;28;20259;-73
2021/04/28 08:24:23;;;;;;;7.37;3.83;;;18.90;99.90;;;;;;5069263;28;20180;-74
2021/04/28 08:26:51;;;;;;;6.90;4.20;;;18.90;99.90;;;;;;5058262;28;20184;-73
2021/04/28 08:29:18;;;;;;;5.87;3.90;;;18.90;99.90;;;;;;5068011;28;20184;-74
2021/04/28 08:31:46;;;;;;;11.80;4.30;;;18.90;99.90;;;;;;5074050;28;20572;-74
2021/04/28 08:34:13;;;;;;;7.83;4.50;;;18.90;99.90;;;;;;5074748;28;20184;-74
2021/04/28 08:36:40;;;;;;;10.00;4.23;;;18.90;99.90;;;;;;5074784;28;20229;-71
2021/04/28 08:39:08;;;;;;;7.80;3.80;;;18.80;99.90;;;;;;5051551;28;20188;-74
2021/04/28 08:41:37;;;;;;;6.07;3.83;;;18.80;99.90;;;;;;5065198;28;20175;-72
2021/04/28 08:44:09;;;;;;;6.93;4.57;;;18.80;99.90;;;;;;5066823;28;20218;-74
2021/04/28 08:46:37;;;;;;;9.23;4.20;;;18.80;99.90;;;;;;5055207;28;20310;-74
2021/04/28 08:49:07;;;;;;;10.93;4.60;;;18.80;99.90;;;;;;5067812;28;20175;-75
2021/04/28 08:51:37;;;;;;;7.33;4.50;;;18.80;99.90;;;;;;5067207;28;20646;-71
2021/04/28 08:54:08;;;;;;;7.30;4.40;;;18.80;99.90;;;;;;5074230;28;20179;-74
2021/04/28 08:56:36;;;;;;;5.90;4.37;;;18.70;99.90;;;;;;5073064;28;21109;-73
2021/04/28 08:59:07;;;;;;;7.87;4.00;;;18.70;99.90;;;;;;5067164;28;20764;-74
2021/04/28 09:01:39;;;;;;;11.37;4.70;;;18.70;99.90;;;;;;5065962;28;20244;-74
2021/04/28 09:04:15;;;;;;;9.23;5.37;;;18.70;99.90;;;;;;5058367;28;20189;-75
2021/04/28 09:06:43;;;;;;;9.17;4.73;;;18.70;99.90;;;;;;5074701;28;20197;-73
2021/04/28 09:09:13;;;;;;;8.50;5.03;;;18.60;99.90;;;;;;5070610;28;20179;-74
2021/04/28 09:11:52;;;;;;;5.13;4.00;;;18.60;99.90;;;;;;5065419;28;20711;-75
2021/04/28 09:14:26;;;;;;;7.27;4.60;;;18.60;99.90;;;;;;5061650;28;20266;-73
2021/04/28 09:17:02;;;;;;;5.43;4.13;;;18.50;99.90;;;;;;5072365;28;20582;-74
2021/04/28 09:19:40;;;;;;;6.73;4.10;;;18.50;99.90;;;;;;5057868;28;20571;-74
2021/04/28 09:22:10;;;;;;;8.90;4.30;;;18.50;99.90;;;;;;5066339;28;20622;-75
2021/04/28 09:24:48;;;;;;;7.40;3.63;;;18.40;99.90;;;;;;5062205;28;20234;-75
2021/04/28 09:27:34;;;;;;;7.33;4.80;;;18.30;99.90;;;;;;5061130;28;20179;-75
2021/04/28 09:30:09;;;;;;;10.67;4.17;;;18.40;99.90;;;;;;5041662;28;20243;-74
2021/04/28 09:32:40;;;;;;;6.67;3.90;;;18.30;99.90;;;;;;5053611;28;20239;-71
2021/04/28 09:35:20;;;;;;;7.43;4.27;;;18.30;99.90;;;;;;5055149;28;20187;-74
2021/04/28 09:37:57;;;;;;;5.20;3.83;;;18.30;99.90;;;;;;5053089;28;20231;-75
2021/04/28 09:40:43;;;;;;;6.33;3.90;;;18.30;99.90;;;;;;5052027;28;20552;-74
2021/04/28 09:43:12;;;;;;;7.30;4.07;;;18.30;99.90;;;;;;5072302;28;20224;-73
2021/04/28 09:45:39;;;;;;;9.13;4.13;;;18.30;99.90;;;;;;5052100;28;20673;-72
2021/04/28 09:48:10;;;;;;;11.17;4.03;;;18.30;99.90;;;;;;5054802;28;20179;-74
2021/04/28 09:50:38;;;;;;;10.30;3.90;;;18.30;99.90;;;;;;5052904;28;20596;-71
2021/04/28 09:53:05;;;;;;;5.97;3.90;;;18.30;99.90;;;;;;5055519;28;20191;-70
2021/04/28 09:55:45;;;;;;;9.83;3.80;;;18.20;99.90;;;;;;5059585;28;20370;-71
2021/04/28 09:58:13;;;;;;;7.10;3.97;;;18.20;99.90;;;;;;5065726;28;20254;-70
2021/04/28 10:00:41;;;;;;;6.33;3.73;;;18.20;99.90;;;;;;5059694;28;20191;-71
2021/04/28 10:03:09;;;;;;;8.50;4.30;;;18.20;99.90;;;;;;5064487;28;20613;-74
2021/04/28 10:05:40;;;;;;;8.57;4.30;;;18.20;99.90;;;;;;5058732;28;20223;-75
2021/04/28 10:08:20;;;;;;;6.77;4.30;;;18.20;99.90;;;;;;5040670;28;20186;-71
2021/04/28 10:10:50;;;;;;;5.53;4.20;;;18.10;99.90;;;;;;5053843;28;20223;-74
2021/04/28 10:13:18;;;;;;;7.30;3.93;;;18.10;99.90;;;;;;5053698;28;20589;-73
2021/04/28 10:15:46;;;;;;;8.70;3.93;;;18.10;99.90;;;;;;5052467;28;20602;-74
2021/04/28 10:18:16;;;;;;;8.00;4.07;;;18.10;99.90;;;;;;5053103;28;20557;-71
2021/04/28 10:20:45;;;;;;;6.20;3.80;;;18.10;99.90;;;;;;5053480;28;20623;-72
2021/04/28 10:23:15;;;;;;;6.43;3.60;;;18.00;99.90;;;;;;5051476;28;20278;-72
2021/04/28 10:25:46;;;;;;;5.43;3.90;;;18.00;99.90;;;;;;5051018;28;20219;-71
2021/04/28 10:28:14;;;;;;;9.23;4.10;;;18.00;99.90;;;;;;5052592;28;20179;-73
2021/04/28 10:30:44;;;;;;;9.13;4.00;;;18.00;99.90;;;;;;5052078;28;20314;-73
2021/04/28 10:33:33;;;;;;;7.83;3.70;;;18.00;99.90;;;;;;5053917;28;20195;-74
2021/04/28 10:36:04;;;;;;;7.07;3.77;;;18.00;99.90;;;;;;5052802;28;20198;-73
2021/04/28 10:38:33;;;;;;;4.30;3.90;;;17.90;99.90;;;;;;5053534;28;20270;-74
2021/04/28 10:41:02;;;;;;;5.97;3.93;;;17.90;99.90;;;;;;5052691;28;20613;-72
2021/04/28 10:43:38;;;;;;;8.13;4.23;;;17.90;99.90;;;;;;5053785;28;20194;-71
2021/04/28 10:46:24;;;;;;;6.70;4.47;;;17.90;99.90;;;;;;5052614;28;20222;-72
2021/04/28 10:48:52;;;;;;;11.17;3.97;;;17.90;99.90;;;;;;5052344;28;20204;-70
2021/04/28 10:51:36;;;;;;;9.40;3.97;;;17.90;99.90;;;;;;5043164;28;20590;-73
2021/04/28 10:54:19;;;;;;;6.67;3.83;;;17.90;99.90;;;;;;5039610;28;21750;-73
2021/04/28 10:57:03;;;;;;;11.07;4.00;;;17.90;99.90;;;;;;5044870;28;20216;-72
2021/04/28 10:59:41;;;;;;;6.63;3.93;;;17.80;99.90;;;;;;5052611;28;20179;-73
2021/04/28 11:02:14;;;;;;;11.13;3.97;;;17.90;99.90;;;;;;5052423;28;20183;-73
2021/04/28 11:05:00;;;;;;;9.47;4.10;;;17.90;99.90;;;;;;5052788;28;20662;-74
2021/04/28 11:07:43;;;;;;;6.47;3.80;;;17.80;99.90;;;;;;5051356;28;20184;-75
2021/04/28 11:10:26;;;;;;;8.80;3.93;;;17.80;99.90;;;;;;5052708;28;20564;-74
2021/04/28 11:13:03;;;;;;;7.30;4.43;;;17.80;99.90;;;;;;5038651;28;20233;-74
2021/04/28 11:15:52;;;;;;;10.57;4.60;;;17.80;99.90;;;;;;5052027;28;20172;-73
2021/04/28 11:18:36;;;;;;;8.50;3.87;;;17.70;99.90;;;;;;5051327;28;20183;-72
2021/04/28 11:21:27;;;;;;;9.30;4.03;;;17.70;99.90;;;;;;5051407;28;20183;-73
2021/04/28 11:24:17;;;;;;;11.20;4.00;;;17.60;99.90;;;;;;5052807;28;20306;-74
2021/04/28 11:26:50;;;;;;;8.27;4.50;;;17.60;99.90;;;;;;5040757;28;20572;-73
2021/04/28 11:29:19;;;;;;;9.70;4.23;;;17.50;99.90;;;;;;5044381;28;20186;-73
2021/04/28 11:31:49;;;;;;;9.40;4.87;;;17.50;99.90;;;;;;5054765;28;20224;-74
2021/04/28 11:34:28;;;;;;;10.07;4.87;;;17.50;99.90;;;;;;5063100;28;20186;-70
2021/04/28 11:36:58;;;;;;;10.07;4.63;;;17.50;99.90;;;;;;5064826;28;20187;-75
2021/04/28 11:39:44;;;;;;;7.73;4.70;;;17.50;99.90;;;;;;5049588;28;20180;-75
2021/04/28 11:42:13;;;;;;;8.27;4.87;;;17.50;99.90;;;;;;5055193;28;20179;-72
2021/04/28 11:44:48;;;;;;;7.40;4.50;;;17.50;99.90;;;;;;5059949;28;20191;-74
2021/04/28 11:47:18;;;;;;;10.40;5.03;;;17.50;99.90;;;;;;5067581;28;20308;-73
2021/04/28 11:49:50;;;;;;;7.87;4.07;;;17.40;99.90;;;;;;5069127;28;20182;-73
2021/04/28 11:52:19;;;;;;;10.02;5.25;;;17.30;99.90;;;;;;5061959;28;20776;-72
2021/04/28 11:54:53;;;;;;;8.20;4.90;;;17.30;99.90;;;;;;5065748;28;20641;-72
2021/04/28 11:57:40;;;;;;;10.70;5.37;;;17.20;99.90;;;;;;5051346;28;20182;-73
2021/04/28 12:00:10;;;;;;;7.27;5.47;;;17.20;99.90;;;;;;5038867;28;20180;-73
2021/04/28 12:02:39;;;;;;;7.47;5.10;;;17.20;99.90;;;;;;5052020;28;20661;-75
2021/04/28 12:05:07;;;;;;;7.53;5.27;;;17.20;99.90;;;;;;5052396;28;20212;-72
2021/04/28 12:07:35;;;;;;;8.30;5.93;;;17.10;99.90;;;;;;5056324;28;20654;-74
2021/04/28 12:10:11;;;;;;;8.17;4.30;;;17.00;99.90;;;;;;5054570;28;20646;-73
2021/04/28 12:12:40;;;;;;;11.27;5.00;;;17.00;99.90;;;;;;5055959;28;20194;-73
2021/04/28 12:15:08;;;;;;;9.53;4.83;;;17.00;99.90;;;;;;5056344;28;20520;-75
2021/04/28 12:17:40;;;;;;;11.47;4.50;;;17.00;99.90;;;;;;5054542;28;20182;-74
2021/04/28 12:20:12;;;;;;;8.00;4.43;;;16.90;99.90;;;;;;5055533;28;20741;-73
2021/04/28 12:22:41;;;;;;;8.50;5.10;;;16.90;99.90;;;;;;5057347;28;20179;-73
2021/04/28 12:25:10;;;;;;;11.60;4.67;;;16.80;99.90;;;;;;5057690;28;20224;-71
2021/04/28 12:27:39;;;;;;;9.97;4.83;;;16.80;99.90;;;;;;5059941;28;20590;-73
2021/04/28 12:30:15;;;;;;;10.13;5.00;;;16.70;99.90;;;;;;5057656;28;20215;-73
2021/04/28 12:32:49;;;;;;;11.03;5.13;;;16.70;99.90;;;;;;5055336;28;20226;-72
2021/04/28 12:35:23;;;;;;;8.10;4.60;;;16.70;99.90;;;;;;5055143;28;20184;-71
2021/04/28 12:38:10;;;;;;;11.20;4.77;;;16.70;99.90;;;;;;5054332;28;20186;-69
2021/04/28 12:40:55;;;;;;;11.03;5.07;;;16.60;99.90;;;;;;5054800;28;20207;-75
2021/04/28 12:43:39;;;;;;;8.77;5.07;;;16.60;99.90;;;;;;5055511;28;20191;-75
2021/04/28 12:46:08;;;;;;;16.33;6.20;;;16.60;99.90;;;;;;5055250;28;20216;-74
2021/04/28 12:48:53;;;;;;;10.50;4.83;;;16.50;99.90;;;;;;5054549;28;20183;-75
2021/04/28 12:51:21;;;;;;;8.13;5.23;;;16.50;99.90;;;;;;5055633;28;20261;-74
2021/04/28 12:53:48;;;;;;;9.77;4.97;;;16.50;99.90;;;;;;5053945;28;20191;-74
2021/04/28 12:56:16;;;;;;;9.53;5.37;;;16.50;99.90;;;;;;5054396;28;20286;-72
2021/04/28 12:58:44;;;;;;;12.93;6.40;;;16.40;99.90;;;;;;5055026;28;20272;-72